createdAt,value
2023-04-15T00:01:19.849Z,99556.00
2023-04-15T00:03:48.195Z,99551.72
2023-04-15T00:06:16.376Z,99546.91
2023-04-15T00:08:43.967Z,99547.06
2023-04-15T00:11:12.724Z,99548.53
2023-04-15T00:13:40.458Z,99547.47
2023-04-15T00:16:08.724Z,99541.66
2023-04-15T00:18:36.703Z,99538.59
2023-04-15T00:21:05.184Z,99538.63
2023-04-15T00:23:33.137Z,99542.94
2023-04-15T00:26:01.091Z,99539.53
2023-04-15T00:28:29.745Z,99536.09
2023-04-15T00:30:58.647Z,99536.97
2023-04-15T00:33:26.335Z,99534.97
2023-04-15T00:35:54.463Z,99533.94
2023-04-15T00:38:22.050Z,99531.31
2023-04-15T00:40:50.346Z,99539.41
2023-04-15T00:43:17.914Z,99533.25
2023-04-15T00:45:47.500Z,99529.50
2023-04-15T00:48:16.634Z,99530.91
2023-04-15T00:50:44.534Z,99531.59
2023-04-15T00:53:12.587Z,99534.56
2023-04-15T00:55:40.567Z,99528.91
2023-04-15T00:58:08.251Z,99529.78
2023-04-15T01:00:36.976Z,99537.19
2023-04-15T01:03:04.617Z,99521.53
2023-04-15T01:05:32.635Z,99536.66
2023-04-15T01:08:00.242Z,99526.72
2023-04-15T01:10:28.686Z,99532.09
2023-04-15T01:12:56.199Z,99529.00
2023-04-15T01:15:24.381Z,99527.84
2023-04-15T01:17:52.114Z,99523.44
2023-04-15T01:20:20.515Z,99531.78
2023-04-15T01:22:48.933Z,99536.19
2023-04-15T01:25:20.438Z,99523.72
2023-04-15T01:27:48.515Z,99532.84
2023-04-15T01:30:17.700Z,99530.13
2023-04-15T01:32:45.358Z,99537.84
2023-04-15T01:35:13.525Z,99529.94
2023-04-15T01:37:41.305Z,99521.28
2023-04-15T01:40:09.394Z,99528.22
2023-04-15T01:42:37.672Z,99527.84
2023-04-15T01:45:07.402Z,99533.91
2023-04-15T01:47:35.079Z,99528.28
2023-04-15T01:50:03.221Z,99531.22
2023-04-15T01:52:30.738Z,99535.09
2023-04-15T01:54:58.727Z,99526.72
2023-04-15T01:57:26.638Z,99526.47
2023-04-15T01:59:54.628Z,99537.50
2023-04-15T02:02:22.561Z,99527.00
2023-04-15T02:04:50.676Z,99530.22
2023-04-15T02:07:18.438Z,99528.47
2023-04-15T02:09:46.412Z,99536.63
2023-04-15T02:12:14.399Z,99535.41
2023-04-15T02:14:42.362Z,99533.97
2023-04-15T02:17:09.993Z,99538.47
2023-04-15T02:19:37.909Z,99534.47
2023-04-15T02:22:05.589Z,99534.38
2023-04-15T02:24:33.499Z,99539.25
2023-04-15T02:27:02.281Z,99536.53
2023-04-15T02:29:32.508Z,99533.00
2023-04-15T02:32:01.931Z,99535.84
2023-04-15T02:34:29.942Z,99531.66
2023-04-15T02:36:59.237Z,99541.53
2023-04-15T02:39:27.616Z,99536.91
2023-04-15T02:41:55.553Z,99540.78
2023-04-15T02:44:25.250Z,99543.44
2023-04-15T02:46:58.604Z,99540.31
2023-04-15T02:49:30.080Z,99555.00
2023-04-15T02:51:58.409Z,99545.81
2023-04-15T02:54:28.917Z,99548.47
2023-04-15T02:56:56.867Z,99550.72
2023-04-15T02:59:24.814Z,99549.50
2023-04-15T03:01:52.689Z,99548.03
2023-04-15T03:04:21.124Z,99557.69
2023-04-15T03:06:48.745Z,99555.22
2023-04-15T03:09:16.744Z,99558.94
2023-04-15T03:11:44.605Z,99555.09
2023-04-15T03:14:12.596Z,99557.69
2023-04-15T03:16:43.866Z,99560.59
2023-04-15T03:19:12.418Z,99563.66
2023-04-15T03:21:42.876Z,99563.19
2023-04-15T03:24:10.882Z,99564.06
2023-04-15T03:26:38.780Z,99562.19
2023-04-15T03:29:12.870Z,99569.25
2023-04-15T03:31:42.159Z,99570.81
2023-04-15T03:34:10.218Z,99558.47
2023-04-15T03:36:38.307Z,99569.72
2023-04-15T03:39:06.258Z,99561.53
2023-04-15T03:41:33.975Z,99565.31
2023-04-15T03:44:01.987Z,99571.53
2023-04-15T03:46:29.657Z,99565.63
2023-04-15T03:48:57.714Z,99569.81
2023-04-15T03:51:25.359Z,99567.84
2023-04-15T03:53:53.238Z,99561.97
2023-04-15T03:56:20.739Z,99560.13
2023-04-15T03:58:48.587Z,99571.38
2023-04-15T04:01:16.701Z,99572.94
2023-04-15T04:03:44.652Z,99577.97
2023-04-15T04:06:12.909Z,99569.53
2023-04-15T04:08:41.175Z,99575.19
2023-04-15T04:11:08.788Z,99579.94
2023-04-15T04:13:36.813Z,99577.41
2023-04-15T04:16:05.129Z,99577.66
2023-04-15T04:18:33.368Z,99573.09
2023-04-15T04:21:01.334Z,99577.13
2023-04-15T04:23:29.435Z,99576.47
2023-04-15T04:25:57.040Z,99571.88
2023-04-15T04:28:24.946Z,99583.53
2023-04-15T04:30:52.709Z,99583.03
2023-04-15T04:33:20.982Z,99580.13
2023-04-15T04:35:48.599Z,99587.13
2023-04-15T04:38:16.554Z,99590.22
2023-04-15T04:40:44.398Z,99586.47
2023-04-15T04:43:12.895Z,99583.84
2023-04-15T04:45:40.727Z,99588.09
2023-04-15T04:48:09.052Z,99593.75
2023-04-15T04:50:37.229Z,99590.25
2023-04-15T04:53:05.229Z,99593.06
2023-04-15T04:55:32.804Z,99600.84
2023-04-15T04:58:00.772Z,99600.91
2023-04-15T05:00:28.359Z,99601.16
2023-04-15T05:02:56.752Z,99606.00
2023-04-15T05:05:24.511Z,99612.50
2023-04-15T05:07:52.722Z,99621.66
2023-04-15T05:10:20.371Z,99616.59
2023-04-15T05:12:48.331Z,99625.03
2023-04-15T05:15:16.046Z,99624.25
2023-04-15T05:17:45.020Z,99625.25
2023-04-15T05:20:12.944Z,99628.09
2023-04-15T05:22:41.105Z,99630.31
2023-04-15T05:25:08.984Z,99630.22
2023-04-15T05:27:37.010Z,99636.00
2023-04-15T05:30:04.796Z,99634.38
2023-04-15T05:32:32.781Z,99634.00
2023-04-15T05:35:00.693Z,99637.66
2023-04-15T05:37:28.687Z,99637.09
2023-04-15T05:39:57.140Z,99646.72
2023-04-15T05:42:25.248Z,99649.28
2023-04-15T05:44:52.899Z,99653.38
2023-04-15T05:47:20.866Z,99656.19
2023-04-15T05:49:48.454Z,99658.44
2023-04-15T05:52:16.893Z,99664.63
2023-04-15T05:54:44.528Z,99663.53
2023-04-15T05:57:12.493Z,99662.91
2023-04-15T05:59:40.075Z,99665.31
2023-04-15T06:02:08.031Z,99658.66
2023-04-15T06:04:35.812Z,99661.16
2023-04-15T06:07:03.805Z,99660.44
2023-04-15T06:09:31.365Z,99660.72
2023-04-15T06:11:59.295Z,99655.19
2023-04-15T06:14:26.942Z,99654.69
2023-04-15T06:16:54.889Z,99648.94
2023-04-15T06:19:22.464Z,99658.97
2023-04-15T06:21:50.589Z,99649.97
2023-04-15T06:24:18.307Z,99646.13
2023-04-15T06:26:46.421Z,99649.47
2023-04-15T06:29:14.383Z,99644.06
2023-04-15T06:31:42.283Z,99649.06
2023-04-15T06:34:09.878Z,99647.72
2023-04-15T06:36:37.833Z,99649.84
2023-04-15T06:39:05.410Z,99655.09
2023-04-15T06:41:34.448Z,99650.97
2023-04-15T06:44:02.140Z,99648.00
2023-04-15T06:46:30.084Z,99651.31
2023-04-15T06:48:57.676Z,99651.66
2023-04-15T06:51:26.735Z,99657.88
2023-04-15T06:53:54.663Z,99653.25
2023-04-15T06:56:23.691Z,99658.91
2023-04-15T06:58:51.412Z,99652.88
2023-04-15T07:01:20.007Z,99655.91
2023-04-15T07:03:48.017Z,99650.81
2023-04-15T07:06:15.922Z,99653.69
2023-04-15T07:08:43.894Z,99657.22
2023-04-15T07:11:11.784Z,99659.09
2023-04-15T07:13:39.358Z,99663.06
2023-04-15T07:16:07.524Z,99663.41
2023-04-15T07:18:35.234Z,99663.31
2023-04-15T07:21:03.165Z,99654.59
2023-04-15T07:23:30.783Z,99663.22
2023-04-15T07:25:58.737Z,99660.25
2023-04-15T07:28:26.341Z,99662.97
2023-04-15T07:30:54.410Z,99660.66
2023-04-15T07:33:22.250Z,99663.66
2023-04-15T07:35:50.263Z,99659.22
2023-04-15T07:38:18.128Z,99658.09
2023-04-15T07:40:46.802Z,99661.13
2023-04-15T07:43:14.703Z,99657.63
2023-04-15T07:45:42.563Z,99660.00
2023-04-15T07:48:10.081Z,99659.13
2023-04-15T07:50:38.387Z,99653.84
2023-04-15T07:53:06.799Z,99658.16
2023-04-15T07:55:34.644Z,99661.63
2023-04-15T07:58:02.254Z,99654.75
2023-04-15T08:00:31.067Z,99649.03
2023-04-15T08:03:00.073Z,99649.38
2023-04-15T08:05:28.129Z,99656.00
2023-04-15T08:07:55.689Z,99657.13
2023-04-15T08:10:23.665Z,99669.13
2023-04-15T08:12:54.709Z,99659.47
2023-04-15T08:15:22.688Z,99656.78
2023-04-15T08:17:50.676Z,99661.41
2023-04-15T08:20:19.165Z,99660.66
2023-04-15T08:22:52.256Z,99666.38
2023-04-15T08:25:20.502Z,99665.63
2023-04-15T08:27:48.205Z,99669.09
2023-04-15T08:30:16.583Z,99662.16
2023-04-15T08:32:47.521Z,99665.25
2023-04-15T08:35:15.853Z,99670.25
2023-04-15T08:37:43.419Z,99661.78
2023-04-15T08:40:11.639Z,99665.63
2023-04-15T08:42:43.667Z,99660.22
2023-04-15T08:45:12.889Z,99662.94
2023-04-15T08:47:40.721Z,99659.72
2023-04-15T08:50:09.694Z,99660.72
2023-04-15T08:52:37.658Z,99660.63
2023-04-15T08:55:06.251Z,99666.81
2023-04-15T08:57:34.053Z,99660.66
2023-04-15T09:00:05.277Z,99669.00
2023-04-15T09:02:33.915Z,99658.88
2023-04-15T09:05:05.180Z,99673.56
2023-04-15T09:07:34.490Z,99655.53
2023-04-15T09:10:03.762Z,99666.66
2023-04-15T09:12:31.846Z,99660.22
2023-04-15T09:14:59.755Z,99666.03
2023-04-15T09:17:28.154Z,99659.84
2023-04-15T09:20:13.286Z,99649.03
2023-04-15T09:22:41.776Z,99648.75
2023-04-15T09:25:18.707Z,99653.56
2023-04-15T09:27:50.602Z,99649.81
2023-04-15T09:30:18.624Z,99653.72
2023-04-15T09:32:59.341Z,99644.50
2023-04-15T09:35:27.926Z,99651.22
2023-04-15T09:38:03.301Z,99651.22
2023-04-15T09:40:35.493Z,99653.81
2023-04-15T09:43:03.987Z,99654.47
2023-04-15T09:45:32.899Z,99648.59
2023-04-15T09:48:14.999Z,99650.94
2023-04-15T09:50:44.201Z,99662.03
2023-04-15T09:53:15.079Z,99647.88
2023-04-15T09:55:56.885Z,99644.00
2023-04-15T09:58:27.676Z,99636.97
2023-04-15T10:00:57.798Z,99636.22
2023-04-15T10:03:27.717Z,99640.94
2023-04-15T10:05:57.565Z,99632.81
2023-04-15T10:08:26.327Z,99635.03
2023-04-15T10:10:54.859Z,99630.06
2023-04-15T10:13:24.479Z,99635.78
2023-04-15T10:15:58.635Z,99634.75
2023-04-15T10:18:27.437Z,99627.50
2023-04-15T10:20:55.816Z,99628.63
2023-04-15T10:23:24.612Z,99630.66
2023-04-15T10:25:56.585Z,99620.66
2023-04-15T10:28:25.119Z,99621.56
2023-04-15T10:30:53.782Z,99624.50
2023-04-15T10:33:23.096Z,99621.69
2023-04-15T10:35:52.208Z,99624.59
2023-04-15T10:38:35.179Z,99618.31
2023-04-15T10:41:17.092Z,99612.78
2023-04-15T10:43:48.359Z,99620.97
2023-04-15T10:46:23.994Z,99616.25
2023-04-15T10:48:53.035Z,99618.16
2023-04-15T10:51:28.619Z,99622.50
2023-04-15T10:54:00.965Z,99621.94
2023-04-15T10:56:30.480Z,99627.97
2023-04-15T10:59:01.864Z,99613.25
2023-04-15T11:01:48.355Z,99620.22
2023-04-15T11:04:36.434Z,99613.69
2023-04-15T11:07:07.666Z,99612.59
2023-04-15T11:09:35.297Z,99608.22
2023-04-15T11:12:09.974Z,99604.38
2023-04-15T11:14:42.296Z,99607.38
2023-04-15T11:17:10.321Z,99596.53
2023-04-15T11:19:39.247Z,99596.91
2023-04-15T11:22:08.348Z,99596.94
2023-04-15T11:24:36.703Z,99601.31
2023-04-15T11:27:04.888Z,99609.63
2023-04-15T11:29:32.583Z,99605.00
2023-04-15T11:32:10.265Z,99610.91
2023-04-15T11:34:38.003Z,99586.88
2023-04-15T11:37:06.896Z,99592.88
2023-04-15T11:39:35.097Z,99597.84
2023-04-15T11:42:03.145Z,99602.88
2023-04-15T11:44:30.724Z,99596.53
2023-04-15T11:46:58.668Z,99594.81
2023-04-15T11:49:27.359Z,99594.97
2023-04-15T11:51:55.309Z,99593.41
2023-04-15T11:54:22.938Z,99601.28
2023-04-15T11:56:52.165Z,99593.69
2023-04-15T11:59:19.796Z,99584.56
2023-04-15T12:01:47.926Z,99591.16
2023-04-15T12:04:18.579Z,99591.56
2023-04-15T12:06:47.506Z,99590.31
2023-04-15T12:09:16.806Z,99584.28
2023-04-15T12:11:47.606Z,99586.19
2023-04-15T12:14:25.855Z,99589.25
2023-04-15T12:16:55.324Z,99596.88
2023-04-15T12:19:27.727Z,99580.72
2023-04-15T12:22:01.020Z,99581.72
2023-04-15T12:24:31.534Z,99586.28
2023-04-15T12:27:02.889Z,99589.94
2023-04-15T12:29:31.013Z,99584.16
2023-04-15T12:32:04.397Z,99589.84
2023-04-15T12:34:33.197Z,99592.59
2023-04-15T12:37:02.636Z,99589.66
2023-04-15T12:39:31.530Z,99583.16
2023-04-15T12:42:00.705Z,99587.69
2023-04-15T12:44:28.631Z,99579.47
2023-04-15T12:46:57.095Z,99594.88
2023-04-15T12:49:25.098Z,99594.31
2023-04-15T12:51:54.189Z,99585.81
2023-04-15T12:54:22.256Z,99589.63
2023-04-15T12:56:51.181Z,99592.25
2023-04-15T12:59:19.028Z,99599.78
2023-04-15T13:01:48.215Z,99592.16
2023-04-15T13:04:16.600Z,99590.50
2023-04-15T13:06:44.704Z,99593.34
2023-04-15T13:09:12.393Z,99603.84
2023-04-15T13:11:40.441Z,99589.75
2023-04-15T13:14:08.679Z,99589.34
2023-04-15T13:16:37.137Z,99576.03
2023-04-15T13:19:05.089Z,99587.16
2023-04-15T13:21:35.910Z,99594.19
2023-04-15T13:24:05.190Z,99591.97
2023-04-15T13:26:33.982Z,99586.81
2023-04-15T13:29:02.089Z,99591.81
2023-04-15T13:31:30.399Z,99592.97
2023-04-15T13:33:58.101Z,99609.69
2023-04-15T13:36:26.936Z,99597.91
2023-04-15T13:38:54.717Z,99605.47
2023-04-15T13:41:22.573Z,99597.97
2023-04-15T13:43:50.099Z,99590.06
2023-04-15T13:46:18.124Z,99594.66
2023-04-15T13:48:45.832Z,99585.91
2023-04-15T13:51:13.770Z,99589.28
2023-04-15T13:53:41.499Z,99598.84
2023-04-15T13:56:09.704Z,99591.13
2023-04-15T13:58:37.866Z,99588.88
2023-04-15T14:01:07.243Z,99596.13
2023-04-15T14:03:36.278Z,99598.00
2023-04-15T14:06:05.211Z,99589.19
2023-04-15T14:08:33.196Z,99588.84
2023-04-15T14:11:01.455Z,99591.53
2023-04-15T14:13:29.308Z,99596.56
2023-04-15T14:15:57.743Z,99602.19
2023-04-15T14:18:25.532Z,99589.94
2023-04-15T14:20:53.659Z,99593.06
2023-04-15T14:23:21.487Z,99583.75
2023-04-15T14:25:50.616Z,99603.16
2023-04-15T14:28:20.275Z,99607.69
2023-04-15T14:30:48.215Z,99604.00
2023-04-15T14:33:16.429Z,99600.38
2023-04-15T14:35:44.425Z,99606.88
2023-04-15T14:38:12.015Z,99610.75
2023-04-15T14:40:41.313Z,99608.81
2023-04-15T14:43:08.958Z,99614.53
2023-04-15T14:45:39.480Z,99607.72
2023-04-15T14:48:10.152Z,99619.22
2023-04-15T14:50:38.372Z,99620.25
2023-04-15T14:53:06.176Z,99610.06
2023-04-15T14:55:34.226Z,99618.69
2023-04-15T14:58:02.662Z,99626.31
2023-04-15T15:00:30.995Z,99627.19
2023-04-15T15:02:58.874Z,99636.44
2023-04-15T15:05:27.042Z,99631.09
2023-04-15T15:07:54.819Z,99630.47
2023-04-15T15:10:30.710Z,99639.97
2023-04-15T15:13:10.917Z,99636.66
2023-04-15T15:15:39.556Z,99642.88
2023-04-15T15:18:07.240Z,99642.94
2023-04-15T15:20:36.287Z,99649.53
2023-04-15T15:23:03.881Z,99647.47
2023-04-15T15:25:31.884Z,99655.44
2023-04-15T15:27:59.572Z,99645.72
2023-04-15T15:30:27.494Z,99659.13
2023-04-15T15:32:55.195Z,99663.84
2023-04-15T15:35:23.921Z,99648.38
2023-04-15T15:37:51.781Z,99656.84
2023-04-15T15:40:19.714Z,99655.59
2023-04-15T15:42:50.201Z,99662.28
2023-04-15T15:45:18.586Z,99662.44
2023-04-15T15:47:46.426Z,99659.53
2023-04-15T15:50:14.730Z,99665.09
2023-04-15T15:52:42.433Z,99670.69
2023-04-15T15:55:10.516Z,99676.94
2023-04-15T15:57:38.228Z,99675.72
2023-04-15T16:03:04.308Z,99673.13
2023-04-15T16:05:25.120Z,99678.19
2023-04-15T16:07:52.888Z,99681.69
2023-04-15T16:10:20.961Z,99674.47
2023-04-15T16:12:48.617Z,99672.19
2023-04-15T16:15:16.682Z,99680.47
2023-04-15T16:17:44.540Z,99686.22
2023-04-15T16:20:12.565Z,99682.44
2023-04-15T16:22:40.273Z,99679.13
2023-04-15T16:25:08.533Z,99684.25
2023-04-15T16:27:54.141Z,99691.69
2023-04-15T16:30:25.132Z,99694.56
2023-04-15T16:32:53.218Z,99695.03
2023-04-15T16:35:21.260Z,99693.44
2023-04-15T16:37:48.896Z,99700.19
2023-04-15T16:40:17.146Z,99709.72
2023-04-15T16:42:44.940Z,99711.56
2023-04-15T16:45:12.927Z,99718.56
2023-04-15T16:47:40.632Z,99729.81
2023-04-15T16:50:09.394Z,99724.00
2023-04-15T16:52:37.135Z,99730.38
2023-04-15T16:55:05.434Z,99738.53
2023-04-15T16:57:57.889Z,99740.06
2023-04-15T17:00:21.422Z,99744.34
2023-04-15T17:02:49.382Z,99745.84
2023-04-15T17:05:18.121Z,99756.34
2023-04-15T17:07:46.034Z,99752.13
2023-04-15T17:10:14.289Z,99765.63
2023-04-15T17:12:42.225Z,99760.25
2023-04-15T17:15:11.003Z,99762.97
2023-04-15T17:17:39.495Z,99769.94
2023-04-15T17:20:07.956Z,99773.84
2023-04-15T17:22:35.687Z,99784.66
2023-04-15T17:25:04.836Z,99790.03
2023-04-15T17:27:32.574Z,99803.06
2023-04-15T17:30:00.634Z,99809.63
2023-04-15T17:32:34.755Z,99805.25
2023-04-15T17:35:08.672Z,99812.50
2023-04-15T17:37:36.410Z,99820.00
2023-04-15T17:40:06.734Z,99817.66
2023-04-15T17:42:36.591Z,99824.47
2023-04-15T17:45:04.682Z,99828.34
2023-04-15T17:47:32.639Z,99834.28
2023-04-15T17:50:00.869Z,99842.66
2023-04-15T17:52:28.657Z,99839.59
2023-04-15T17:54:56.912Z,99840.72
2023-04-15T17:57:25.626Z,99848.59
2023-04-15T17:59:54.431Z,99855.13
2023-04-15T18:02:22.236Z,99850.72
2023-04-15T18:04:50.779Z,99853.44
2023-04-15T18:07:18.706Z,99866.16
2023-04-15T18:09:46.855Z,99866.09
2023-04-15T18:12:14.669Z,99868.00
2023-04-15T18:14:42.862Z,99873.81
2023-04-15T18:17:11.392Z,99872.94
2023-04-15T18:19:39.387Z,99874.75
2023-04-15T18:22:07.290Z,99876.63
2023-04-15T18:24:35.586Z,99882.97
2023-04-15T18:27:04.159Z,99885.19
2023-04-15T18:29:32.962Z,99890.25
2023-04-15T18:32:03.155Z,99885.84
2023-04-15T18:34:31.279Z,99887.81
2023-04-15T18:36:59.140Z,99899.72
2023-04-15T18:39:27.755Z,99910.88
2023-04-15T18:41:56.612Z,99920.00
2023-04-15T18:44:24.880Z,99925.66
2023-04-15T18:46:52.781Z,99923.66
2023-04-15T18:49:21.124Z,99920.53
2023-04-15T18:51:48.728Z,99936.41
2023-04-15T18:54:16.998Z,99937.78
2023-04-15T18:56:44.929Z,99938.56
2023-04-15T18:59:29.167Z,99935.88
2023-04-15T19:01:59.311Z,99945.38
2023-04-15T19:04:29.460Z,99946.34
2023-04-15T19:06:59.227Z,99954.88
2023-04-15T19:09:28.598Z,99958.50
2023-04-15T19:11:57.905Z,99962.94
2023-04-15T19:14:26.453Z,99967.88
2023-04-15T19:16:54.250Z,99974.28
2023-04-15T19:19:22.467Z,99974.53
2023-04-15T19:21:50.525Z,99982.88
2023-04-15T19:24:18.934Z,99987.16
2023-04-15T19:26:53.094Z,99989.25
2023-04-15T19:29:23.116Z,99990.72
2023-04-15T19:31:51.373Z,99998.53
2023-04-15T19:34:19.651Z,99993.25
2023-04-15T19:36:47.575Z,99992.34
2023-04-15T19:39:16.492Z,100000.72
2023-04-15T19:41:44.508Z,100009.56
2023-04-15T19:44:15.337Z,100004.66
2023-04-15T19:46:45.067Z,100011.25
2023-04-15T19:49:12.917Z,100011.13
2023-04-15T19:51:41.104Z,100017.19
2023-04-15T19:54:09.000Z,100020.91
2023-04-15T19:56:36.621Z,100024.41
2023-04-15T19:59:05.352Z,100025.59
2023-04-15T20:01:33.270Z,100025.88
2023-04-15T20:04:03.580Z,100023.72
2023-04-15T20:06:31.846Z,100023.41
2023-04-15T20:08:59.815Z,100026.25
2023-04-15T20:12:46.625Z,100025.94
2023-04-15T20:14:18.384Z,100028.47
2023-04-15T20:16:46.243Z,100028.59
2023-04-15T20:19:14.826Z,100035.44
2023-04-15T20:21:42.599Z,100034.03
2023-04-15T20:24:11.057Z,100035.78
2023-04-15T20:26:38.612Z,100031.78
2023-04-15T20:29:06.674Z,100032.09
2023-04-15T20:31:34.408Z,100039.34
2023-04-15T20:34:02.287Z,100043.31
2023-04-15T20:36:30.049Z,100044.13
2023-04-15T20:38:57.910Z,100048.16
2023-04-15T20:41:25.825Z,100047.75
2023-04-15T20:43:53.769Z,100045.91
2023-04-15T20:46:22.148Z,100050.19
2023-04-15T20:48:50.690Z,100053.22
2023-04-15T20:51:18.216Z,100056.09
2023-04-15T20:53:46.113Z,100060.19
2023-04-15T20:56:13.629Z,100069.75
2023-04-15T20:58:41.573Z,100050.97
2023-04-15T21:01:09.293Z,100062.91
2023-04-15T21:03:37.507Z,100065.72
2023-04-15T21:06:05.234Z,100067.94
2023-04-15T21:08:33.164Z,100070.94
2023-04-15T21:11:00.814Z,100067.75
2023-04-15T21:13:28.665Z,100070.59
2023-04-15T21:15:56.200Z,100080.00
2023-04-15T21:18:24.100Z,100092.78
2023-04-15T21:20:58.301Z,100099.13
2023-04-15T21:23:26.527Z,100101.78
2023-04-15T21:25:54.058Z,100101.75
2023-04-15T21:28:22.254Z,100096.09
2023-04-15T21:30:49.931Z,100098.94
2023-04-15T21:33:18.107Z,100109.47
2023-04-15T21:35:45.604Z,100110.50
2023-04-15T21:38:13.546Z,100120.47
2023-04-15T21:40:41.498Z,100119.69
2023-04-15T21:43:09.724Z,100119.41
2023-04-15T21:45:39.799Z,100124.16
2023-04-15T21:48:08.511Z,100130.00
2023-04-15T21:50:36.830Z,100136.00
2023-04-15T21:53:05.019Z,100130.09
2023-04-15T21:55:32.536Z,100127.38
2023-04-15T21:58:00.529Z,100122.31
2023-04-15T22:00:28.165Z,100129.84
2023-04-15T22:02:56.179Z,100127.91
2023-04-15T22:05:23.784Z,100126.69
2023-04-15T22:07:51.763Z,100126.94
2023-04-15T22:10:21.269Z,100121.19
2023-04-15T22:12:49.108Z,100126.94
2023-04-15T22:15:17.180Z,100125.53
2023-04-15T22:17:45.580Z,100132.47
2023-04-15T22:20:13.547Z,100134.53
2023-04-15T22:22:44.398Z,100139.16
2023-04-15T22:25:12.758Z,100140.19
2023-04-15T22:27:41.030Z,100142.16
2023-04-15T22:30:08.859Z,100147.59
2023-04-15T22:32:37.196Z,100140.97
2023-04-15T22:35:06.714Z,100139.13
2023-04-15T22:37:34.612Z,100149.22
2023-04-15T22:40:02.738Z,100149.16
2023-04-15T22:42:30.601Z,100147.53
2023-04-15T22:44:58.082Z,100151.84
2023-04-15T22:47:26.034Z,100155.28
2023-04-15T22:49:53.621Z,100148.16
2023-04-15T22:52:30.061Z,100149.78
2023-04-15T22:54:58.959Z,100156.97
2023-04-15T22:57:28.028Z,100154.19
2023-04-15T22:59:55.632Z,100154.06
2023-04-15T23:02:23.608Z,100155.19
2023-04-15T23:04:51.358Z,100158.88
2023-04-15T23:07:19.389Z,100151.09
2023-04-15T23:09:46.965Z,100150.84
2023-04-15T23:12:14.890Z,100154.34
2023-04-15T23:14:42.491Z,100152.16
2023-04-15T23:17:10.525Z,100157.47
2023-04-15T23:19:38.106Z,100151.72
2023-04-15T23:22:07.492Z,100151.50
2023-04-15T23:24:35.042Z,100150.28
2023-04-15T23:27:02.938Z,100151.88
2023-04-15T23:29:30.544Z,100153.63
2023-04-15T23:31:58.557Z,100154.84
2023-04-15T23:34:26.483Z,100153.28
2023-04-15T23:36:54.389Z,100153.63
2023-04-15T23:39:21.994Z,100154.88
2023-04-15T23:41:49.886Z,100164.53
2023-04-15T23:44:17.413Z,100167.66
2023-04-15T23:46:45.257Z,100163.69
2023-04-15T23:49:12.924Z,100172.63
2023-04-15T23:51:41.124Z,100175.56
2023-04-15T23:54:08.731Z,100176.38
2023-04-15T23:56:36.829Z,100167.19
2023-04-15T23:59:04.454Z,100170.72
